Grovania, Georgia
Current Conditions -  °F | °C
As of 9:55 AM on Friday 19 Dec 2014 (Local Time) from KPXE Reporting Station
Clear Clear  
Wind Chill: 47°   Ceiling: Unl
Heat Index: 49°   Visibility: 10mi
Dew Point: 35°   Wind: 5mph
Humidity: 59%   Direction: 360°N
Pressure: 30.18"   Gusts: NA
Location:  32.2568°N, 83.5362°W
Report Text: KPXE 191455Z AUTO 36004KT 10SM CLR 10/02 A3018 RMK AO2 T00950019
Loading
Personal Weather Stations






























Interactive Weather Map New forecast layout! Learn more

10-Day Weather Forecast

Advertisements
Track Severe Weather on mobile